Aérodrome :
LOGIN :

S'inscrire | Disclaimer

   EN    FR    IT 

 










Légende :    VFR   VFR Marginal   IFR   IFR Intensif   IFR Très Intensif
Visi : 
Plafond : 
>= 8 km
>= 3000ft
5 à 8 km
1000 à 3000 ft
1500m à 5 km
500 à 1000 ft
800 à 1500m
200 à 500 ft
< 800m
< 200 ft
Symboles :   Orages  Brouillard  Fortes neiges  Fortes précipitations  Vent > 20 kt
SIGMETs :   Divers  Orages  Givrage  Turbulence  Onde Orograph.  Cendres Volcan.







- Altitude de l'aérodrome : 50 ft
- Code IATA : KOI
- Voir les cartes d'approche


EGPA - Kirkwall

DERNIER METAR :
  • 210050Z AUTO 10015KT 9999 BKN030/// BKN039/// 07/02 Q1024

METARs EXPIRÉS :
  • 210020Z AUTO 11012KT 9999 BKN026/// BKN039/// 07/03 Q1024
  • 202350Z 10010KT 9999 FEW024 BKN032 07/03 Q1024
  • 202320Z 09012KT 9999 FEW025 BKN038 08/04 Q1024
  • 202250Z AUTO 09013KT 9999 OVC040/// 08/03 Q1024
  • 202220Z AUTO 09014KT 9999 SCT027/// BKN031/// OVC044/// 08/03 Q1024

TAF TAF EGPA
Valide du 21 à 00h jusqu'au 21 à 09h UTC


202302Z 2100/2109 09012KT 9999 BKN030
TEMPO 2100/2109 10020G30KT 7000 SHRA
Pas de NOTAMs connus pour ce terrain.
2 SIGMETs publiés pour la FIR Scottish (EGPX) :
 
Onde orographique forte
EGPX SIGMET 04 VALID 202100/210100 EGRR
EGPX SCOTTISH FIR SEV MTW FCST WI N5703 W00536 - N5709 W00355 - N5500 W00218 - N5500 W00525 - N5703 W00536 FL030/120 STNR NC=
Onde orographique forte
EGPX SIGMET 01 VALID 210100/210500 EGRR
EGPX SCOTTISH FIR SEV MTW FCST WI N5500 W00525 - N5712 W00606 - N5834 W00536 - N5832 W00412 - N5656 W00353 - N5500 W00218 - N5500 W00525 FL030/120 STNR WKN=



MET'MAP, la Météo Aéronautique d'un coup d'oeil ! - Copyright ORBIFLY Décembre 2007 - Disclaimer

ORBIFLY MET'MAP TEAM :

Programmation & Développement : Alexandra Zaïnal
Conception & Développement : Baudouin d'Aumeries
Co-Programmation & Développement : Marc-Olivier Méhu
Soutien technique & logistique : Manuel Goepfert

Contact : metmap@orbifly.com




SOURCES & CREDITS :

   NOAA